Pilot Magazine UKGA

About You

Log In Register UKGA membership

Flight planning

Flight planning New flightplan NOTAM map LARS map & NOTAMs Danger area, mil. & TRA activations Weather map GPS route download Find waypoints Your waypoints New waypoint

Forums

Forums Currently discussing "Are you still in business for a/c share sales?"

History

Bodmin weather

Other items

Articles Events Links News Surveys Tips Other users Feedback UKGA membership About UKGA

Bodmin weather

(Weather from Newquay)

NOT FOR OPERATIONAL USE

TAF

TAF EGHQ 290456Z 2906/2915 VRB03KT 9999 SCT020= TAF EGMC 290501Z 2906/2915 35005KT 0300 FG VV/// 
      TEMPO 2906/2909 4000 BR BKN004 
      BECMG 2909/2912 9999 NSW BKN012 
      TEMPO 2912/2915 BKN005 PROB30 
      TEMPO 2912/2915 7000

Previous TAFs

Log in to see Previous TAFs.

METAR

EGHQ 290720Z 09003KT 9999 FEW040 08/05 Q1019
Our last available update is from 29 November, 07:20 UTC. There is an Easterly wind of 3 knots . Current visibility is 10 km or more. There are a few clouds at 4,000 feet. The temperature is 8°C. The dewpoint is 5°C. The QNH is 1019mb.

Previous METARs

Log in to see previous METARs.

Contribute to UKGA:

Do you have more up-to-date information about Bodmin?

Register with UKGA

Registration is quick and easy, and FREE!

Registered users received the following benefits:

  • Remembers "Favourites" Aerodromes
  • Automatic email of new Notams (if desired)
  • Automatic email of relevant events
  • Log Book
  • ... and more!

Click here to register NOW

About You

Log In Register UKGA membership

Airfields

Interactive airfield map Search by name Search by postcode Search by location Fuel prices Pilot reviews Latest
(No favourites selected)

Flight planning

Flight planning New flightplan NOTAM map LARS map & NOTAMs Danger area, mil. & TRA activations Weather map GPS route download Find waypoints Your waypoints New waypoint

Forums

Forums Currently discussing "Are you still in business for a/c share sales?"

History

Bodmin weather

Other items

Articles Events Links News Surveys Tips Other users Feedback UKGA membership About UKGA